createdAt,value
2017-11-23T00:01:46.959Z,88.58
2017-11-23T00:04:15.213Z,87.88
2017-11-23T00:06:44.226Z,87.44
2017-11-23T00:09:12.478Z,87.24
2017-11-23T00:11:40.728Z,87.64
2017-11-23T00:14:08.980Z,88.58
2017-11-23T00:16:37.239Z,89.43
2017-11-23T00:19:05.500Z,89.56
2017-11-23T00:21:34.511Z,89.57
2017-11-23T00:24:02.758Z,89.60
2017-11-23T00:26:31.793Z,89.75
2017-11-23T00:29:00.034Z,89.47
2017-11-23T00:31:28.298Z,89.23
2017-11-23T00:33:57.312Z,88.08
2017-11-23T00:36:25.569Z,87.82
2017-11-23T00:38:54.594Z,88.70
2017-11-23T00:41:22.849Z,88.78
2017-11-23T00:43:51.112Z,89.27
2017-11-23T00:46:20.130Z,89.41
2017-11-23T00:48:48.392Z,89.46
2017-11-23T00:51:16.634Z,90.31
2017-11-23T00:53:44.903Z,90.81
2017-11-23T00:56:13.149Z,90.66
2017-11-23T00:58:41.414Z,90.49
2017-11-23T01:01:09.659Z,90.46
2017-11-23T01:03:38.693Z,90.12
2017-11-23T01:06:06.944Z,89.63
2017-11-23T01:08:35.208Z,89.15
2017-11-23T01:11:04.233Z,88.51
2017-11-23T01:13:32.491Z,87.96
2017-11-23T01:16:00.729Z,87.04
2017-11-23T01:18:28.980Z,86.54
2017-11-23T01:20:57.218Z,85.81
2017-11-23T01:23:25.499Z,86.68
2017-11-23T01:25:53.748Z,86.05
2017-11-23T01:28:22.753Z,87.10
2017-11-23T01:30:50.997Z,88.57
2017-11-23T01:33:19.247Z,88.32
2017-11-23T01:35:47.503Z,90.20
2017-11-23T01:38:15.760Z,90.63
2017-11-23T01:40:44.036Z,90.40
2017-11-23T01:43:12.294Z,90.45
2017-11-23T01:45:41.314Z,90.09
2017-11-23T01:48:09.571Z,89.54
2017-11-23T01:50:37.844Z,89.51
2017-11-23T01:53:06.859Z,90.10
2017-11-23T01:55:35.123Z,89.94
2017-11-23T01:58:03.375Z,89.43
2017-11-23T02:00:32.428Z,88.92
2017-11-23T02:03:00.678Z,88.96
2017-11-23T02:05:28.924Z,88.90
2017-11-23T02:07:57.957Z,89.00
2017-11-23T02:10:26.207Z,89.06
2017-11-23T02:12:54.472Z,88.38
2017-11-23T02:15:23.487Z,88.32
2017-11-23T02:17:51.738Z,88.55
2017-11-23T02:20:20.756Z,88.46
2017-11-23T02:22:49.070Z,88.09
2017-11-23T02:25:17.316Z,88.00
2017-11-23T02:27:45.580Z,89.34
2017-11-23T02:30:13.820Z,89.78
2017-11-23T02:32:42.074Z,89.75
2017-11-23T02:35:10.335Z,90.30
2017-11-23T02:37:38.598Z,90.15
2017-11-23T02:40:06.849Z,90.53
2017-11-23T02:42:35.123Z,90.53
2017-11-23T02:45:04.130Z,90.69
2017-11-23T02:47:32.382Z,90.08
2017-11-23T02:50:01.404Z,89.81
2017-11-23T02:52:29.646Z,89.22
2017-11-23T02:54:58.670Z,87.56
2017-11-23T02:57:26.922Z,87.92
2017-11-23T02:59:55.933Z,88.07
2017-11-23T03:02:24.166Z,88.31
2017-11-23T03:04:52.409Z,88.60
2017-11-23T03:07:20.666Z,88.16
2017-11-23T03:09:48.919Z,87.70
2017-11-23T03:12:17.169Z,85.70
2017-11-23T03:14:45.424Z,84.29
2017-11-23T03:17:13.795Z,83.37
2017-11-23T03:19:42.050Z,83.89
2017-11-23T03:22:10.287Z,83.75
2017-11-23T03:24:39.308Z,83.17
2017-11-23T03:27:07.555Z,82.38
2017-11-23T03:29:36.579Z,85.10
2017-11-23T03:32:04.819Z,86.83
2017-11-23T03:34:33.837Z,87.48
2017-11-23T03:37:02.093Z,87.59
2017-11-23T03:39:31.108Z,87.48
2017-11-23T03:41:59.360Z,87.48
2017-11-23T03:44:28.375Z,86.99
2017-11-23T03:46:56.622Z,85.88
2017-11-23T03:49:24.864Z,84.70
2017-11-23T03:51:53.118Z,82.90
2017-11-23T03:54:21.372Z,81.51
2017-11-23T03:56:49.618Z,81.57
2017-11-23T03:59:17.871Z,81.25
2017-11-23T04:01:46.118Z,81.28
2017-11-23T04:04:14.386Z,82.37
2017-11-23T04:06:42.635Z,82.93
2017-11-23T04:09:11.652Z,85.15
2017-11-23T04:11:39.899Z,86.02
2017-11-23T04:14:08.911Z,87.71
2017-11-23T04:16:37.154Z,87.15
2017-11-23T04:19:05.404Z,88.33
2017-11-23T04:21:33.653Z,89.05
2017-11-23T04:24:01.908Z,88.90
2017-11-23T04:26:30.928Z,88.39
2017-11-23T04:28:59.177Z,88.56
2017-11-23T04:31:27.433Z,88.93
2017-11-23T04:33:56.441Z,88.90
2017-11-23T04:36:25.460Z,89.20
2017-11-23T04:38:53.704Z,89.35
2017-11-23T04:41:22.714Z,89.49
2017-11-23T04:43:50.967Z,88.80
2017-11-23T04:46:19.203Z,89.57
2017-11-23T04:48:47.451Z,89.70
2017-11-23T04:51:15.724Z,89.64
2017-11-23T04:53:43.975Z,89.71
2017-11-23T04:56:12.990Z,89.69
2017-11-23T04:58:41.251Z,89.74
2017-11-23T05:01:10.259Z,89.90
2017-11-23T05:03:38.512Z,89.18
2017-11-23T05:06:07.521Z,88.80
2017-11-23T05:08:35.770Z,88.53
2017-11-23T05:11:04.787Z,88.46
2017-11-23T05:13:33.038Z,88.09
2017-11-23T05:16:02.046Z,88.47
2017-11-23T05:18:31.060Z,89.55
2017-11-23T05:20:59.319Z,89.22
2017-11-23T05:23:27.576Z,89.87
2017-11-23T05:25:55.813Z,89.80
2017-11-23T05:28:24.067Z,89.36
2017-11-23T05:30:52.307Z,89.65
2017-11-23T05:33:21.332Z,89.58
2017-11-23T05:35:49.566Z,88.67
2017-11-23T05:38:18.582Z,88.09
2017-11-23T05:40:46.843Z,87.90
2017-11-23T05:43:15.855Z,89.05
2017-11-23T05:45:44.096Z,89.23
2017-11-23T05:48:12.352Z,88.39
2017-11-23T05:50:40.594Z,88.13
2017-11-23T05:53:08.848Z,88.65
2017-11-23T05:55:37.874Z,88.71
2017-11-23T05:58:06.151Z,89.51
2017-11-23T06:00:34.400Z,89.60
2017-11-23T06:03:02.652Z,90.38
2017-11-23T06:05:31.680Z,91.17
2017-11-23T06:07:59.918Z,91.11
2017-11-23T06:10:28.170Z,90.57
2017-11-23T06:12:56.420Z,91.30
2017-11-23T06:15:24.672Z,90.64
2017-11-23T06:17:52.916Z,89.68
2017-11-23T06:20:21.167Z,89.60
2017-11-23T06:22:49.405Z,89.50
2017-11-23T06:25:17.662Z,89.22
2017-11-23T06:27:46.666Z,88.97
2017-11-23T06:30:14.921Z,86.74
2017-11-23T06:32:43.929Z,85.20
2017-11-23T06:35:12.192Z,85.32
2017-11-23T06:37:41.200Z,86.67
2017-11-23T06:40:09.450Z,86.60
2017-11-23T06:42:38.468Z,85.18
2017-11-23T06:45:06.717Z,83.98
2017-11-23T06:47:34.972Z,83.04
2017-11-23T06:50:03.241Z,83.68
2017-11-23T06:52:31.485Z,85.08
2017-11-23T06:54:59.724Z,84.95
2017-11-23T06:57:28.760Z,84.64
2017-11-23T06:59:56.999Z,84.48
2017-11-23T07:02:26.003Z,83.75
2017-11-23T07:04:54.247Z,83.09
2017-11-23T07:07:22.495Z,82.96
2017-11-23T07:09:50.743Z,84.58
2017-11-23T07:12:18.999Z,85.89
2017-11-23T07:14:48.007Z,87.98
2017-11-23T07:17:16.264Z,88.05
2017-11-23T07:19:45.276Z,86.89
2017-11-23T07:22:13.529Z,85.49
2017-11-23T07:24:42.539Z,84.55
2017-11-23T07:27:10.799Z,83.80
2017-11-23T07:29:39.810Z,82.65
2017-11-23T07:32:08.054Z,82.49
2017-11-23T07:34:37.074Z,82.94
2017-11-23T07:37:05.328Z,84.82
2017-11-23T07:39:33.568Z,86.03
2017-11-23T07:42:01.815Z,85.17
2017-11-23T07:44:30.055Z,84.14
2017-11-23T07:46:58.291Z,80.71
2017-11-23T07:49:26.535Z,80.36
2017-11-23T07:51:54.780Z,84.25
2017-11-23T07:54:23.021Z,85.74
2017-11-23T07:56:51.288Z,85.34
2017-11-23T07:59:19.532Z,86.33
2017-11-23T08:01:47.780Z,86.60
2017-11-23T08:04:16.016Z,86.67
2017-11-23T08:06:44.263Z,86.80
2017-11-23T08:09:12.512Z,86.68
2017-11-23T08:11:42.512Z,87.56
2017-11-23T08:14:11.604Z,86.69
2017-11-23T08:16:39.877Z,81.82
2017-11-23T08:19:08.140Z,74.21
2017-11-23T08:21:36.405Z,74.71
2017-11-23T08:24:04.690Z,77.72
2017-11-23T08:26:32.947Z,78.87
2017-11-23T08:29:01.213Z,80.98
2017-11-23T08:31:29.469Z,82.72
2017-11-23T08:33:57.744Z,82.15
2017-11-23T08:36:26.012Z,84.02
2017-11-23T08:38:55.019Z,83.43
2017-11-23T08:41:23.281Z,81.53
2017-11-23T08:43:52.311Z,78.47
2017-11-23T08:46:20.582Z,75.15
2017-11-23T08:48:48.832Z,69.55
2017-11-23T08:51:17.089Z,70.04
2017-11-23T08:53:46.129Z,71.43
2017-11-23T08:56:14.389Z,67.48
2017-11-23T08:58:42.656Z,75.96
2017-11-23T09:01:10.914Z,68.10
2017-11-23T09:03:39.941Z,68.90
2017-11-23T09:06:08.205Z,71.97
2017-11-23T09:08:36.469Z,71.60
2017-11-23T09:11:05.506Z,73.50
2017-11-23T09:13:33.752Z,75.48
2017-11-23T09:16:02.008Z,67.10
2017-11-23T09:18:31.035Z,65.59
2017-11-23T09:20:59.293Z,66.16
2017-11-23T09:23:27.564Z,60.86
2017-11-23T09:25:55.858Z,59.72
2017-11-23T09:28:24.118Z,61.09
2017-11-23T09:30:52.394Z,62.97
2017-11-23T09:33:20.650Z,61.64
2017-11-23T09:35:48.899Z,63.25
2017-11-23T09:38:17.168Z,61.07
2017-11-23T09:40:45.422Z,61.16
2017-11-23T09:43:13.677Z,60.69
2017-11-23T09:45:41.947Z,57.88
2017-11-23T09:48:10.225Z,58.08
2017-11-23T09:50:38.528Z,55.94
2017-11-23T09:53:06.793Z,55.48
2017-11-23T09:55:35.057Z,56.14
2017-11-23T09:58:03.331Z,54.60
2017-11-23T10:00:31.596Z,54.10
2017-11-23T10:02:59.868Z,53.14
2017-11-23T10:05:28.136Z,53.40
2017-11-23T10:07:57.180Z,51.02
2017-11-23T10:10:25.439Z,50.96
2017-11-23T10:12:53.720Z,50.70
2017-11-23T10:15:21.990Z,49.34
2017-11-23T10:17:50.276Z,48.75
2017-11-23T10:20:18.541Z,49.87
2017-11-23T10:22:46.800Z,50.07
2017-11-23T10:25:15.055Z,49.92
2017-11-23T10:27:44.107Z,50.78
2017-11-23T10:30:12.385Z,50.03
2017-11-23T10:32:40.648Z,50.20
2017-11-23T10:35:08.933Z,48.97
2017-11-23T10:37:42.988Z,49.13
2017-11-23T10:40:12.045Z,49.55
2017-11-23T10:42:40.318Z,49.43
2017-11-23T10:45:08.587Z,49.26
2017-11-23T10:47:36.856Z,48.50
2017-11-23T10:50:05.129Z,49.35
2017-11-23T10:52:33.401Z,49.03
2017-11-23T10:55:01.676Z,49.61
2017-11-23T10:57:29.942Z,50.20
2017-11-23T10:59:58.211Z,50.18
2017-11-23T11:02:26.471Z,49.64
2017-11-23T11:04:55.503Z,50.03
2017-11-23T11:07:23.751Z,50.12
2017-11-23T11:09:52.036Z,49.45
2017-11-23T11:12:20.300Z,49.49
2017-11-23T11:14:48.585Z,49.89
2017-11-23T11:17:16.846Z,49.41
2017-11-23T11:19:45.905Z,47.84
2017-11-23T11:22:14.171Z,47.53
2017-11-23T11:24:42.470Z,46.95
2017-11-23T11:27:10.745Z,46.20
2017-11-23T11:29:39.029Z,46.43
2017-11-23T11:32:07.293Z,46.35
2017-11-23T11:34:35.556Z,46.35
2017-11-23T11:37:03.845Z,45.13
2017-11-23T11:39:32.117Z,44.37
2017-11-23T11:42:00.382Z,41.81
2017-11-23T11:44:28.649Z,42.24
2017-11-23T11:46:56.912Z,43.82
2017-11-23T11:49:25.189Z,45.90
2017-11-23T11:51:53.465Z,45.99
2017-11-23T11:54:21.727Z,45.56
2017-11-23T11:56:49.991Z,43.14
2017-11-23T11:59:18.261Z,44.41
2017-11-23T12:01:46.536Z,45.16
2017-11-23T12:04:14.785Z,45.96
2017-11-23T12:06:43.065Z,46.44
2017-11-23T12:09:11.330Z,46.51
2017-11-23T12:11:39.594Z,47.17
2017-11-23T12:14:25.592Z,47.21
2017-11-23T12:16:56.822Z,47.25
2017-11-23T12:19:42.901Z,47.04
2017-11-23T12:25:37.632Z,44.46
2017-11-23T12:28:23.747Z,42.36
2017-11-23T12:30:51.999Z,40.65
2017-11-23T12:33:20.259Z,40.92
2017-11-23T12:35:48.510Z,37.89
2017-11-23T12:38:16.775Z,36.51
2017-11-23T12:40:45.790Z,41.29
2017-11-23T12:43:14.045Z,41.77
2017-11-23T12:45:43.058Z,40.62
2017-11-23T12:48:11.318Z,44.72
2017-11-23T12:50:40.327Z,45.48
2017-11-23T12:53:08.575Z,46.77
2017-11-23T12:55:37.584Z,46.74
2017-11-23T12:58:05.843Z,45.96
2017-11-23T13:00:34.847Z,45.97
2017-11-23T13:03:03.112Z,45.07
2017-11-23T13:05:32.110Z,42.76
2017-11-23T13:08:01.141Z,43.45
2017-11-23T13:10:29.381Z,43.60
2017-11-23T13:12:57.652Z,42.92
2017-11-23T13:15:26.650Z,44.23
2017-11-23T13:17:54.937Z,41.91
2017-11-23T13:20:23.185Z,42.27
2017-11-23T13:22:52.215Z,43.83
2017-11-23T13:25:20.467Z,41.37
2017-11-23T13:27:49.463Z,42.66
2017-11-23T13:30:17.725Z,43.31
2017-11-23T13:32:46.733Z,42.53
2017-11-23T13:35:14.988Z,43.58
2017-11-23T13:37:44.015Z,43.49
2017-11-23T13:40:12.255Z,43.91
2017-11-23T13:42:40.495Z,43.47
2017-11-23T13:45:08.764Z,44.21
2017-11-23T13:47:37.001Z,43.31
2017-11-23T13:50:06.020Z,44.14
2017-11-23T13:52:34.262Z,43.73
2017-11-23T13:55:03.288Z,43.11
2017-11-23T13:57:31.540Z,43.97
2017-11-23T14:00:00.860Z,43.99
2017-11-23T14:02:29.108Z,43.98
2017-11-23T14:04:58.119Z,43.93
2017-11-23T14:07:26.364Z,43.08
2017-11-23T14:09:55.371Z,44.31
2017-11-23T14:12:24.394Z,44.29
2017-11-23T14:14:52.634Z,45.49
2017-11-23T14:17:21.665Z,44.93
2017-11-23T14:19:49.916Z,44.04
2017-11-23T14:22:18.930Z,45.25
2017-11-23T14:24:47.167Z,44.64
2017-11-23T14:27:16.178Z,46.99
2017-11-23T14:29:44.431Z,47.18
2017-11-23T14:32:13.451Z,47.45
2017-11-23T14:34:41.699Z,49.75
2017-11-23T14:37:09.953Z,49.87
2017-11-23T14:39:38.198Z,50.01
2017-11-23T14:42:06.465Z,50.67
2017-11-23T14:44:34.712Z,51.00
2017-11-23T14:47:03.723Z,51.21
2017-11-23T14:49:31.986Z,51.43
2017-11-23T14:52:00.991Z,51.88
2017-11-23T14:54:29.254Z,51.85
2017-11-23T14:56:58.260Z,52.43
2017-11-23T14:59:26.520Z,52.09
2017-11-23T15:01:55.537Z,52.86
2017-11-23T15:04:23.791Z,52.53
2017-11-23T15:06:52.805Z,53.01
2017-11-23T15:09:21.059Z,53.49
2017-11-23T15:11:49.312Z,53.38
2017-11-23T15:14:17.560Z,53.42
2017-11-23T15:16:45.818Z,53.25
2017-11-23T15:19:14.063Z,53.29
2017-11-23T15:21:42.308Z,53.01
2017-11-23T15:24:10.555Z,53.35
2017-11-23T15:26:38.798Z,53.70
2017-11-23T15:29:07.041Z,53.76
2017-11-23T15:31:35.303Z,54.17
2017-11-23T15:34:03.550Z,53.98
2017-11-23T15:36:31.794Z,53.78
2017-11-23T15:39:00.028Z,53.79
2017-11-23T15:41:28.311Z,53.62
2017-11-23T15:43:56.563Z,54.09
2017-11-23T15:46:24.819Z,54.19
2017-11-23T15:48:53.072Z,54.48
2017-11-23T15:51:21.320Z,54.29
2017-11-23T15:53:49.565Z,54.83
2017-11-23T15:56:18.594Z,54.55
2017-11-23T15:58:47.615Z,54.69
2017-11-23T16:01:15.854Z,54.81
2017-11-23T16:03:44.114Z,54.89
2017-11-23T16:06:12.370Z,54.93
2017-11-23T16:08:40.633Z,54.82
2017-11-23T16:11:08.872Z,55.13
2017-11-23T16:13:37.893Z,55.24
2017-11-23T16:16:06.186Z,55.53
2017-11-23T16:18:34.439Z,55.14
2017-11-23T16:21:02.689Z,54.90
2017-11-23T16:23:31.699Z,54.98
2017-11-23T16:25:59.955Z,54.70
2017-11-23T16:28:28.989Z,54.66
2017-11-23T16:30:57.273Z,55.09
2017-11-23T16:33:25.519Z,54.86
2017-11-23T16:35:53.763Z,54.87
2017-11-23T16:38:36.898Z,54.57
2017-11-23T16:41:07.376Z,54.60
2017-11-23T16:43:38.403Z,54.61
2017-11-23T16:46:12.127Z,54.41
2017-11-23T16:48:45.919Z,54.45
2017-11-23T16:51:19.607Z,54.27
2017-11-23T16:53:53.515Z,54.07
2017-11-23T16:56:26.080Z,54.18
2017-11-23T17:02:05.338Z,53.96
2017-11-23T17:04:52.291Z,53.94
2017-11-23T17:07:33.114Z,54.29
2017-11-23T17:10:01.410Z,54.09
2017-11-23T17:12:35.206Z,53.95
2017-11-23T17:15:23.304Z,54.31
2017-11-23T17:17:57.027Z,53.97
2017-11-23T17:20:26.100Z,54.03
2017-11-23T17:22:54.342Z,53.84
2017-11-23T17:25:22.643Z,54.13
2017-11-23T17:27:50.911Z,54.27
2017-11-23T17:30:19.210Z,54.02
2017-11-23T17:32:47.504Z,54.01
2017-11-23T17:35:16.506Z,54.35
2017-11-23T17:37:44.805Z,54.66
2017-11-23T17:40:13.061Z,55.15
2017-11-23T17:42:42.110Z,55.24
2017-11-23T17:45:10.412Z,55.80
2017-11-23T17:47:38.659Z,55.79
2017-11-23T17:50:06.931Z,55.91
2017-11-23T17:52:35.183Z,55.39
2017-11-23T17:55:03.436Z,55.62
2017-11-23T17:57:31.689Z,55.61
2017-11-23T18:00:00.705Z,55.41
2017-11-23T18:02:29.003Z,55.67
2017-11-23T18:04:57.282Z,55.96
2017-11-23T18:07:25.531Z,56.34
2017-11-23T18:09:53.796Z,56.04
2017-11-23T18:12:22.817Z,56.18
2017-11-23T18:14:51.126Z,56.01
2017-11-23T18:17:19.392Z,56.41
2017-11-23T18:19:47.638Z,56.14
2017-11-23T18:22:15.936Z,56.41
2017-11-23T18:24:44.189Z,56.22
2017-11-23T18:27:12.446Z,56.01
2017-11-23T18:29:41.465Z,56.25
2017-11-23T18:32:09.773Z,56.07
2017-11-23T18:34:38.013Z,56.21
2017-11-23T18:37:06.265Z,55.89
2017-11-23T18:39:35.320Z,55.70
2017-11-23T18:42:03.606Z,56.02
2017-11-23T18:44:31.850Z,56.20
2017-11-23T18:47:00.102Z,56.20
2017-11-23T18:49:28.354Z,56.61
2017-11-23T18:51:57.419Z,56.55
2017-11-23T18:54:25.678Z,56.90
2017-11-23T18:56:54.063Z,57.00
2017-11-23T18:59:22.345Z,57.15
2017-11-23T19:01:50.596Z,57.21
2017-11-23T19:04:18.893Z,57.40
2017-11-23T19:06:47.156Z,57.19
2017-11-23T19:09:15.430Z,57.55
2017-11-23T19:11:43.713Z,57.51
2017-11-23T19:14:11.967Z,57.89
2017-11-23T19:16:40.249Z,58.31
2017-11-23T19:19:08.548Z,58.32
2017-11-23T19:21:36.794Z,58.44
2017-11-23T19:24:05.141Z,58.50
2017-11-23T19:26:33.699Z,57.70
2017-11-23T19:29:02.029Z,58.58
2017-11-23T19:31:30.361Z,58.90
2017-11-23T19:33:59.437Z,59.33
2017-11-23T19:36:27.757Z,58.50
2017-11-23T19:38:57.758Z,59.37
2017-11-23T19:41:26.782Z,59.87
2017-11-23T19:43:55.078Z,58.26
2017-11-23T19:46:23.367Z,58.54
2017-11-23T19:48:51.681Z,58.32
2017-11-23T19:51:19.978Z,58.60
2017-11-23T19:53:49.032Z,58.89
2017-11-23T19:56:17.358Z,58.33
2017-11-23T19:58:45.673Z,57.93
2017-11-23T20:01:13.989Z,59.19
2017-11-23T20:03:43.042Z,58.64
2017-11-23T20:06:11.328Z,58.96
2017-11-23T20:08:39.622Z,59.03
2017-11-23T20:11:07.931Z,58.05
2017-11-23T20:13:36.262Z,58.72
2017-11-23T20:16:04.552Z,58.79
2017-11-23T20:18:32.858Z,58.99
2017-11-23T20:21:01.147Z,58.64
2017-11-23T20:23:29.459Z,58.97
2017-11-23T20:25:57.753Z,58.66
2017-11-23T20:28:26.068Z,58.53
2017-11-23T20:30:54.353Z,58.73
2017-11-23T20:33:22.647Z,58.86
2017-11-23T20:35:50.897Z,58.76
2017-11-23T20:38:19.183Z,59.51
2017-11-23T20:40:47.499Z,59.16
2017-11-23T20:43:15.870Z,59.27
2017-11-23T20:45:44.178Z,59.21
2017-11-23T20:48:12.481Z,59.91
2017-11-23T20:50:40.770Z,59.25
2017-11-23T20:53:09.070Z,59.28
2017-11-23T20:55:37.357Z,59.55
2017-11-23T20:58:05.608Z,60.01
2017-11-23T21:00:33.923Z,60.25
2017-11-23T21:03:02.215Z,59.62
2017-11-23T21:05:31.272Z,60.69
2017-11-23T21:07:59.576Z,59.81
2017-11-23T21:10:28.645Z,60.18
2017-11-23T21:12:56.890Z,60.61
2017-11-23T21:15:25.190Z,59.50
2017-11-23T21:17:53.448Z,59.70
2017-11-23T21:20:21.762Z,59.43
2017-11-23T21:22:50.122Z,59.81
2017-11-23T21:25:18.420Z,59.58
2017-11-23T21:27:48.227Z,59.55
2017-11-23T21:30:16.529Z,59.87
2017-11-23T21:32:45.618Z,59.35
2017-11-23T21:35:13.905Z,59.22
2017-11-23T21:37:42.910Z,59.03
2017-11-23T21:40:11.226Z,58.67
2017-11-23T21:42:39.556Z,57.90
2017-11-23T21:45:08.567Z,58.84
2017-11-23T21:47:36.828Z,58.70
2017-11-23T21:50:05.088Z,58.38
2017-11-23T21:52:34.153Z,58.40
2017-11-23T21:55:02.422Z,58.35
2017-11-23T21:57:30.673Z,58.35
2017-11-23T21:59:58.980Z,57.92
2017-11-23T22:02:27.286Z,58.08
2017-11-23T22:04:56.303Z,58.10
2017-11-23T22:07:24.567Z,57.96
2017-11-23T22:09:53.617Z,57.82
2017-11-23T22:12:21.888Z,57.93
2017-11-23T22:14:50.170Z,57.79
2017-11-23T22:17:18.462Z,57.51
2017-11-23T22:19:46.818Z,58.05
2017-11-23T22:22:15.183Z,58.24
2017-11-23T22:24:43.502Z,58.38
2017-11-23T22:27:11.814Z,58.29
2017-11-23T22:29:40.161Z,58.44
2017-11-23T22:32:09.282Z,58.35
2017-11-23T22:34:37.633Z,58.60
2017-11-23T22:37:05.895Z,58.76
2017-11-23T22:39:34.449Z,58.38
2017-11-23T22:42:02.800Z,58.51
2017-11-23T22:44:31.112Z,58.09
2017-11-23T22:46:59.467Z,58.49
2017-11-23T22:49:27.780Z,58.66
2017-11-23T22:51:56.280Z,58.66
2017-11-23T22:54:25.487Z,58.12
2017-11-23T22:56:54.494Z,58.08
2017-11-23T22:59:22.792Z,58.38
2017-11-23T23:01:51.034Z,58.12
2017-11-23T23:04:20.058Z,58.16
2017-11-23T23:06:48.353Z,57.59
2017-11-23T23:09:16.650Z,58.97
2017-11-23T23:11:44.926Z,58.71
2017-11-23T23:14:13.212Z,58.75
2017-11-23T23:16:41.501Z,58.44
2017-11-23T23:19:09.740Z,59.38
2017-11-23T23:21:38.042Z,59.89
2017-11-23T23:24:06.283Z,59.38
2017-11-23T23:26:34.588Z,59.50
2017-11-23T23:29:02.834Z,59.06
2017-11-23T23:31:31.096Z,59.13
2017-11-23T23:33:59.345Z,59.23
2017-11-23T23:36:28.361Z,59.30
2017-11-23T23:38:56.616Z,59.37
2017-11-23T23:41:24.904Z,59.28
2017-11-23T23:43:53.150Z,59.32
2017-11-23T23:46:22.158Z,59.12
2017-11-23T23:48:50.416Z,59.41
2017-11-23T23:51:19.421Z,59.42
2017-11-23T23:53:48.444Z,59.40
2017-11-23T23:56:16.688Z,59.81
2017-11-23T23:58:45.707Z,59.97
